Time;durP1;ratioP1;P1;durP2;ratioP2;P2;SDS_P1;SDS_P2;PMS_P1;PMS_P2;Temp;Humidity;BMP_temperature;BMP_pressure;BME280_temperature;BME280_humidity;BME280_pressure;Samples;Min_cycle;Max_cycle;Signal;HPM_P1;HPM_P2
2024/02/15 00:00:04;;;;;;;;;;;;;;;1.35;100.00;100949.50;109273;1253;75730;-56
2024/02/15 00:02:32;;;;;;;;;;;;;;;1.33;100.00;100949.33;109320;1252;66927;-61
2024/02/15 00:04:59;;;;;;;;;;;;;;;1.31;100.00;100940.59;109296;1253;72730;-56
2024/02/15 00:07:27;;;;;;;;;;;;;;;1.32;100.00;100947.55;109239;1252;59910;-63
2024/02/15 00:09:55;;;;;;;;;;;;;;;1.31;100.00;100944.85;109348;1252;59844;-58
2024/02/15 00:12:22;;;;;;;;;;;;;;;1.31;100.00;100941.55;109350;1252;75572;-56
2024/02/15 00:14:50;;;;;;;;;;;;;;;1.32;100.00;100933.65;109317;1252;66982;-56
2024/02/15 00:17:18;;;;;;;;;;;;;;;1.34;100.00;100937.61;109287;1253;72774;-59
2024/02/15 00:19:46;;;;;;;;;;;;;;;1.36;100.00;100941.79;109278;1252;59784;-56
2024/02/15 00:22:14;;;;;;;;;;;;;;;1.36;100.00;100940.89;109294;1252;60126;-57
2024/02/15 00:24:45;;;;;;;;;;;;;;;1.37;100.00;100945.98;109322;1252;75872;-55
2024/02/15 00:27:12;;;;;;;;;;;;;;;1.36;100.00;100938.00;109331;1252;65691;-63
2024/02/15 00:29:40;;;;;;;;;;;;;;;1.35;100.00;100947.85;109212;1252;71286;-58
2024/02/15 00:32:08;;;;;;;;;;;;;;;1.33;100.00;100938.73;109257;1252;60852;-56
2024/02/15 00:34:38;;;;;;;;;;;;;;;1.31;100.00;100939.02;109223;1253;59915;-56
2024/02/15 00:37:06;;;;;;;;;;;;;;;1.32;100.00;100945.83;109279;1253;75527;-55
2024/02/15 00:39:33;;;;;;;;;;;;;;;1.31;100.00;100940.77;109230;1253;65916;-63
2024/02/15 00:42:01;;;;;;;;;;;;;;;1.31;100.00;100945.73;109289;1253;71710;-55
2024/02/15 00:44:29;;;;;;;;;;;;;;;1.32;100.00;100936.91;109258;1253;61000;-57
2024/02/15 00:46:57;;;;;;;;;;;;;;;1.34;100.00;100938.50;109265;1252;60982;-59
2024/02/15 00:49:27;;;;;;;;;;;;;;;1.35;100.00;100933.78;109277;1254;74530;-61
2024/02/15 00:51:55;;;;;;;;;;;;;;;1.36;100.00;100936.10;109298;1252;67336;-55
2024/02/15 00:54:23;;;;;;;;;;;;;;;1.36;100.00;100935.94;109272;1253;70967;-56
2024/02/15 00:56:51;;;;;;;;;;;;;;;1.37;100.00;100940.67;109289;1253;61043;-55
2024/02/15 00:59:19;;;;;;;;;;;;;;;1.36;100.00;100935.23;109294;1253;59976;-65
2024/02/15 01:01:48;;;;;;;;;;;;;;;1.37;100.00;100937.75;109216;1255;74262;-55
2024/02/15 01:04:15;;;;;;;;;;;;;;;1.38;100.00;100940.10;109277;1254;66150;-56
2024/02/15 01:06:43;;;;;;;;;;;;;;;1.39;100.00;100941.38;109376;1253;72824;-55
2024/02/15 01:09:10;;;;;;;;;;;;;;;1.39;100.00;100939.65;109233;1253;59733;-64
2024/02/15 01:11:38;;;;;;;;;;;;;;;1.41;100.00;100934.58;109295;1253;60471;-57
2024/02/15 01:14:09;;;;;;;;;;;;;;;1.43;100.00;100935.09;109429;1253;75621;-55
2024/02/15 01:16:37;;;;;;;;;;;;;;;1.44;100.00;100947.70;109238;1253;66931;-57
2024/02/15 01:19:05;;;;;;;;;;;;;;;1.45;100.00;100944.22;109286;1253;72665;-55
2024/02/15 01:21:36;;;;;;;;;;;;;;;1.48;100.00;100952.39;109267;1253;60935;-55
2024/02/15 01:24:06;;;;;;;;;;;;;;;1.50;100.00;100953.42;109290;1253;59850;-55
2024/02/15 01:26:34;;;;;;;;;;;;;;;1.52;100.00;100955.19;109330;1253;75528;-55
2024/02/15 01:29:03;;;;;;;;;;;;;;;1.53;100.00;100954.92;109298;1253;67472;-55
2024/02/15 01:31:30;;;;;;;;;;;;;;;1.54;100.00;100957.42;109271;1254;72775;-57
2024/02/15 01:33:58;;;;;;;;;;;;;;;1.55;100.00;100948.98;109270;1253;61101;-56
2024/02/15 01:36:26;;;;;;;;;;;;;;;1.58;100.00;100960.77;109291;1252;59906;-55
2024/02/15 01:38:53;;;;;;;;;;;;;;;1.61;100.00;100961.11;109241;1253;75970;-56
2024/02/15 01:41:21;;;;;;;;;;;;;;;1.62;100.00;100965.29;109250;1253;65340;-56
2024/02/15 01:43:49;;;;;;;;;;;;;;;1.64;100.00;100969.75;109183;1253;72321;-55
2024/02/15 01:46:17;;;;;;;;;;;;;;;1.64;100.00;100967.86;109207;1255;59749;-56
2024/02/15 01:48:44;;;;;;;;;;;;;;;1.67;100.00;100966.48;109305;1253;60147;-55
2024/02/15 01:51:12;;;;;;;;;;;;;;;1.67;100.00;100966.14;109229;1253;75560;-56
2024/02/15 01:53:40;;;;;;;;;;;;;;;1.67;100.00;100966.59;109304;1253;65640;-55
2024/02/15 01:56:08;;;;;;;;;;;;;;;1.66;100.00;100965.81;109064;1253;72720;-56
2024/02/15 01:58:36;;;;;;;;;;;;;;;1.67;100.00;100967.66;109272;1253;60965;-57
2024/02/15 02:01:03;;;;;;;;;;;;;;;1.70;100.00;100972.77;109250;1253;59907;-55
2024/02/15 02:03:31;;;;;;;;;;;;;;;1.73;100.00;100970.19;109080;1252;75577;-55
2024/02/15 02:05:59;;;;;;;;;;;;;;;1.75;100.00;100969.71;109202;1253;66957;-58
2024/02/15 02:08:27;;;;;;;;;;;;;;;1.75;100.00;100973.11;109227;1253;72729;-55
2024/02/15 02:10:54;;;;;;;;;;;;;;;1.74;100.00;100976.79;109242;1253;60944;-56
2024/02/15 02:13:22;;;;;;;;;;;;;;;1.73;100.00;100984.03;109289;1253;60126;-56
2024/02/15 02:15:49;;;;;;;;;;;;;;;1.71;100.00;100978.52;109335;1255;74236;-55
2024/02/15 02:18:17;;;;;;;;;;;;;;;1.72;100.00;100993.38;109255;1253;66821;-61
2024/02/15 02:20:45;;;;;;;;;;;;;;;1.71;100.00;100980.77;109211;1253;71119;-56
2024/02/15 02:23:18;;;;;;;;;;;;;;;1.71;100.00;100989.31;109268;1253;61150;-55
2024/02/15 02:25:49;;;;;;;;;;;;;;;1.71;100.00;101002.00;109237;1253;59761;-56
2024/02/15 02:28:17;;;;;;;;;;;;;;;1.72;100.00;101002.82;109072;1253;75581;-56
2024/02/15 02:30:45;;;;;;;;;;;;;;;1.73;100.00;101003.91;109253;1253;67589;-56
2024/02/15 02:33:21;;;;;;;;;;;;;;;1.70;100.00;101017.30;109218;1252;71811;-55
2024/02/15 02:35:49;;;;;;;;;;;;;;;1.66;100.00;101009.51;109249;1252;60295;-55
2024/02/15 02:38:16;;;;;;;;;;;;;;;1.66;100.00;101016.52;109311;1252;60280;-64
2024/02/15 02:40:44;;;;;;;;;;;;;;;1.67;100.00;101022.16;109233;1253;75495;-56
2024/02/15 02:43:12;;;;;;;;;;;;;;;1.71;100.00;101018.48;109309;1253;67134;-55
2024/02/15 02:45:41;;;;;;;;;;;;;;;1.72;100.00;101032.09;109272;1253;72668;-56
2024/02/15 02:48:09;;;;;;;;;;;;;;;1.70;100.00;101033.06;109223;1253;60903;-56
2024/02/15 02:50:37;;;;;;;;;;;;;;;1.69;100.00;101034.50;109276;1252;59719;-58
2024/02/15 02:53:05;;;;;;;;;;;;;;;1.69;100.00;101031.44;109225;1253;75311;-56
2024/02/15 02:55:32;;;;;;;;;;;;;;;1.69;100.00;101042.35;109323;1253;66937;-55
2024/02/15 02:58:00;;;;;;;;;;;;;;;1.69;100.00;101042.23;109207;1253;72758;-55
2024/02/15 03:00:27;;;;;;;;;;;;;;;1.70;100.00;101044.70;109292;1253;59801;-54
2024/02/15 03:02:56;;;;;;;;;;;;;;;1.72;100.00;101041.86;109216;1253;60350;-55
2024/02/15 03:05:24;;;;;;;;;;;;;;;1.73;100.00;101041.44;109250;1253;75540;-55
2024/02/15 03:07:52;;;;;;;;;;;;;;;1.73;100.00;101036.46;109231;1253;66383;-56
2024/02/15 03:10:19;;;;;;;;;;;;;;;1.74;100.00;101039.65;109281;1253;72694;-56
2024/02/15 03:12:47;;;;;;;;;;;;;;;1.75;100.00;101039.27;109266;1253;60975;-57
2024/02/15 03:15:16;;;;;;;;;;;;;;;1.74;100.00;101040.87;109225;1253;59768;-56
2024/02/15 03:17:45;;;;;;;;;;;;;;;1.72;100.00;101046.86;109316;1252;75952;-55
2024/02/15 03:20:23;;;;;;;;;;;;;;;1.68;100.00;101043.65;109226;1253;67440;-57
2024/02/15 03:22:55;;;;;;;;;;;;;;;1.67;100.00;101041.86;109277;1253;72915;-55
2024/02/15 03:25:25;;;;;;;;;;;;;;;1.66;100.00;101044.45;109231;1253;60401;-56
2024/02/15 03:27:54;;;;;;;;;;;;;;;1.67;100.00;101045.77;109297;1253;59709;-55
2024/02/15 03:30:22;;;;;;;;;;;;;;;1.68;100.00;101052.55;109301;1253;73591;-55
2024/02/15 03:32:50;;;;;;;;;;;;;;;1.67;100.00;101048.84;109188;1252;67436;-64
2024/02/15 03:35:22;;;;;;;;;;;;;;;1.66;100.00;101046.86;109302;1254;71089;-56
2024/02/15 03:37:53;;;;;;;;;;;;;;;1.64;100.00;101058.32;109308;1253;60951;-56
2024/02/15 03:40:21;;;;;;;;;;;;;;;1.61;100.00;101056.98;109212;1253;60226;-56
2024/02/15 03:42:52;;;;;;;;;;;;;;;1.58;100.00;101059.75;109209;1253;75462;-63
2024/02/15 03:45:19;;;;;;;;;;;;;;;1.57;100.00;101062.80;109245;1253;66105;-56
2024/02/15 03:47:47;;;;;;;;;;;;;;;1.55;100.00;101065.31;109226;1253;72730;-55
2024/02/15 03:50:14;;;;;;;;;;;;;;;1.55;100.00;101066.81;109312;1253;59778;-56
2024/02/15 03:52:43;;;;;;;;;;;;;;;1.56;100.00;101078.23;109315;1253;60003;-57
2024/02/15 03:55:11;;;;;;;;;;;;;;;1.55;100.00;101075.08;109247;1253;74589;-55
2024/02/15 03:57:45;;;;;;;;;;;;;;;1.53;100.00;101086.83;109298;1253;67523;-55
2024/02/15 04:00:20;;;;;;;;;;;;;;;1.52;100.00;101085.39;109302;1253;71442;-56
2024/02/15 04:02:49;;;;;;;;;;;;;;;1.49;100.00;101087.14;109252;1254;60908;-65
2024/02/15 04:05:18;;;;;;;;;;;;;;;1.46;100.00;101086.44;109253;1253;59916;-55
2024/02/15 04:07:46;;;;;;;;;;;;;;;1.46;100.00;101087.96;109253;1253;76297;-56
2024/02/15 04:10:14;;;;;;;;;;;;;;;1.46;100.00;101091.97;109229;1253;65108;-58
2024/02/15 04:12:44;;;;;;;;;;;;;;;1.45;100.00;101098.86;109177;1253;71783;-56
2024/02/15 04:15:12;;;;;;;;;;;;;;;1.44;100.00;101094.79;109319;1253;59934;-56
2024/02/15 04:17:42;;;;;;;;;;;;;;;1.42;100.00;101095.46;109301;1253;59803;-56
2024/02/15 04:20:11;;;;;;;;;;;;;;;1.43;100.00;101105.50;109324;1253;75555;-55
2024/02/15 04:22:42;;;;;;;;;;;;;;;1.43;100.00;101102.10;109290;1253;65740;-56
2024/02/15 04:25:10;;;;;;;;;;;;;;;1.42;100.00;101109.50;109225;1253;71450;-55
2024/02/15 04:27:38;;;;;;;;;;;;;;;1.41;100.00;101116.09;109310;1254;60920;-58
2024/02/15 04:30:10;;;;;;;;;;;;;;;1.40;100.00;101114.77;109229;1255;59748;-60
2024/02/15 04:32:38;;;;;;;;;;;;;;;1.38;100.00;101117.69;109198;1253;75629;-55
2024/02/15 04:35:06;;;;;;;;;;;;;;;1.36;100.00;101120.00;109220;1253;66875;-56
2024/02/15 04:37:37;;;;;;;;;;;;;;;1.33;100.00;101129.29;109302;1253;72730;-56
2024/02/15 04:40:10;;;;;;;;;;;;;;;1.29;100.00;101131.60;109194;1253;59894;-57
2024/02/15 04:42:39;;;;;;;;;;;;;;;1.25;100.00;101131.04;109255;1253;60101;-56
2024/02/15 04:45:09;;;;;;;;;;;;;;;1.19;100.00;101131.07;109359;1253;74680;-56
2024/02/15 04:47:37;;;;;;;;;;;;;;;1.16;100.00;101133.85;109297;1253;66683;-56
2024/02/15 04:50:06;;;;;;;;;;;;;;;1.13;100.00;101134.70;109303;1253;72759;-64
2024/02/15 04:52:34;;;;;;;;;;;;;;;1.10;100.00;101145.39;109270;1253;60936;-57
2024/02/15 04:55:04;;;;;;;;;;;;;;;1.05;100.00;101138.82;109303;1252;59911;-56
2024/02/15 04:57:34;;;;;;;;;;;;;;;1.02;100.00;101142.47;109188;1253;74149;-56
2024/02/15 05:00:09;;;;;;;;;;;;;;;1.00;100.00;101144.34;109221;1253;66824;-56
2024/02/15 05:02:40;;;;;;;;;;;;;;;0.97;100.00;101139.55;109268;1253;73845;-58
2024/02/15 05:05:09;;;;;;;;;;;;;;;0.91;100.00;101150.36;109192;1253;60972;-55
2024/02/15 05:07:39;;;;;;;;;;;;;;;0.85;100.00;101156.73;109294;1253;59665;-57
2024/02/15 05:10:08;;;;;;;;;;;;;;;0.82;100.00;101152.48;109290;1253;75857;-55
2024/02/15 05:12:42;;;;;;;;;;;;;;;0.83;100.00;101153.64;109297;1253;66929;-55
2024/02/15 05:15:10;;;;;;;;;;;;;;;0.86;100.00;101152.92;109156;1253;72718;-56
2024/02/15 05:17:43;;;;;;;;;;;;;;;0.87;100.00;101155.05;109173;1253;59774;-57
2024/02/15 05:20:13;;;;;;;;;;;;;;;0.85;100.00;101154.18;109160;1253;59723;-63
2024/02/15 05:22:50;;;;;;;;;;;;;;;0.81;100.00;101160.39;109166;1253;74659;-55
2024/02/15 05:25:22;;;;;;;;;;;;;;;0.77;100.00;101164.64;109351;1253;66927;-55
2024/02/15 05:27:53;;;;;;;;;;;;;;;0.70;100.00;101162.98;109309;1252;72743;-55
2024/02/15 05:30:22;;;;;;;;;;;;;;;0.65;100.00;101167.89;109243;1252;60805;-56
2024/02/15 05:32:52;;;;;;;;;;;;;;;0.59;100.00;101170.33;109251;1253;59701;-56
2024/02/15 05:35:21;;;;;;;;;;;;;;;0.55;100.00;101167.56;109249;1253;75571;-57
2024/02/15 05:37:52;;;;;;;;;;;;;;;0.52;100.00;101163.64;109297;1253;65843;-56
2024/02/15 05:40:20;;;;;;;;;;;;;;;0.48;100.00;101174.79;109203;1253;73006;-57
2024/02/15 05:42:49;;;;;;;;;;;;;;;0.47;100.00;101175.40;109226;1253;61009;-55
2024/02/15 05:45:23;;;;;;;;;;;;;;;0.43;100.00;101176.14;109195;1252;59695;-56
2024/02/15 05:47:51;;;;;;;;;;;;;;;0.40;100.00;101174.96;109290;1253;74185;-56
2024/02/15 05:50:23;;;;;;;;;;;;;;;0.39;100.00;101178.60;109222;1253;67071;-56
2024/02/15 05:52:54;;;;;;;;;;;;;;;0.36;100.00;101186.81;109172;1253;72752;-57
2024/02/15 05:55:22;;;;;;;;;;;;;;;0.33;100.00;101189.39;109384;1253;60034;-55
2024/02/15 05:57:50;;;;;;;;;;;;;;;0.32;100.00;101193.11;109219;1253;59639;-64
2024/02/15 06:00:18;;;;;;;;;;;;;;;0.31;100.00;101193.14;109146;1252;75967;-56
2024/02/15 06:02:49;;;;;;;;;;;;;;;0.30;100.00;101197.80;109196;1253;66806;-55
2024/02/15 06:05:18;;;;;;;;;;;;;;;0.30;100.00;101197.63;109178;1253;72804;-56
2024/02/15 06:07:46;;;;;;;;;;;;;;;0.33;100.00;101198.65;109182;1253;60885;-55
2024/02/15 06:10:14;;;;;;;;;;;;;;;0.38;100.00;101200.23;109145;1253;59983;-59
2024/02/15 06:12:43;;;;;;;;;;;;;;;0.43;100.00;101204.17;109136;1253;74869;-55
2024/02/15 06:15:14;;;;;;;;;;;;;;;0.46;100.00;101207.23;109209;1253;66986;-56
2024/02/15 06:17:44;;;;;;;;;;;;;;;0.52;100.00;101213.08;109194;1256;72488;-55
2024/02/15 06:20:17;;;;;;;;;;;;;;;0.55;100.00;101213.52;109151;1253;59934;-56
2024/02/15 06:22:46;;;;;;;;;;;;;;;0.58;100.00;101213.70;109191;1256;59746;-56
2024/02/15 06:25:14;;;;;;;;;;;;;;;0.59;100.00;101213.11;109179;1253;76599;-56
2024/02/15 06:27:42;;;;;;;;;;;;;;;0.58;100.00;101214.39;109266;1253;67335;-56
2024/02/15 06:41:15;;;;;;;;;;;;;;;0.50;100.00;101224.15;109311;1253;64933;-56
2024/02/15 06:43:43;;;;;;;;;;;;;;;0.50;100.00;101218.13;109273;1252;71862;-56
2024/02/15 06:46:11;;;;;;;;;;;;;;;0.48;100.00;101221.16;109276;1253;59746;-58
2024/02/15 06:48:43;;;;;;;;;;;;;;;0.45;100.00;101218.61;109198;1253;60095;-57
2024/02/15 06:51:13;;;;;;;;;;;;;;;0.41;100.00;101215.40;109247;1252;74167;-56
2024/02/15 06:53:41;;;;;;;;;;;;;;;0.41;100.00;101222.23;109191;1253;66840;-56
2024/02/15 06:56:13;;;;;;;;;;;;;;;0.39;100.00;101218.77;109210;1253;72763;-56
2024/02/15 06:58:41;;;;;;;;;;;;;;;0.37;100.00;101217.90;109206;1252;59766;-56
2024/02/15 07:01:09;;;;;;;;;;;;;;;0.39;100.00;101220.51;109230;1252;59729;-66
2024/02/15 07:03:37;;;;;;;;;;;;;;;0.38;100.00;101214.42;109231;1253;76095;-57
2024/02/15 07:06:04;;;;;;;;;;;;;;;0.39;100.00;101222.04;109324;1252;66908;-56
2024/02/15 07:08:32;;;;;;;;;;;;;;;0.41;100.00;101213.04;109257;1257;71444;-57
2024/02/15 07:11:01;;;;;;;;;;;;;;;0.42;100.00;101215.52;109266;1253;59738;-55
2024/02/15 07:13:29;;;;;;;;;;;;;;;0.45;100.00;101213.80;109210;1253;60242;-56
2024/02/15 07:15:57;;;;;;;;;;;;;;;0.48;100.00;101209.14;109300;1253;75534;-58
2024/02/15 07:18:25;;;;;;;;;;;;;;;0.51;100.00;101207.66;109284;1252;66091;-56
2024/02/15 07:20:59;;;;;;;;;;;;;;;0.52;100.00;101206.23;109345;1253;72659;-57
2024/02/15 07:23:27;;;;;;;;;;;;;;;0.55;100.00;101206.17;109406;1253;60949;-66
2024/02/15 07:25:54;;;;;;;;;;;;;;;0.64;100.00;101205.28;109352;1253;59907;-57
2024/02/15 07:28:22;;;;;;;;;;;;;;;0.74;100.00;101202.28;109329;1252;73247;-56
2024/02/15 07:30:54;;;;;;;;;;;;;;;0.81;100.00;101201.35;109330;1253;65725;-56
2024/02/15 07:33:23;;;;;;;;;;;;;;;0.83;100.00;101200.33;109296;1253;72767;-58
2024/02/15 07:35:51;;;;;;;;;;;;;;;0.85;100.00;101195.44;109323;1252;59753;-56
2024/02/15 07:38:19;;;;;;;;;;;;;;;0.89;100.00;101194.83;109343;1252;59734;-56
2024/02/15 07:40:47;;;;;;;;;;;;;;;0.92;100.00;101202.14;109330;1253;74614;-56
2024/02/15 07:43:14;;;;;;;;;;;;;;;0.96;100.00;101197.64;109351;1252;65064;-56
2024/02/15 07:45:42;;;;;;;;;;;;;;;0.98;100.00;101192.17;109258;1253;71611;-57
2024/02/15 07:48:10;;;;;;;;;;;;;;;1.04;100.00;101196.10;109330;1255;59717;-57
2024/02/15 07:50:38;;;;;;;;;;;;;;;1.08;100.00;101194.60;109320;1252;59984;-57
2024/02/15 07:53:06;;;;;;;;;;;;;;;1.12;100.00;101191.78;109356;1252;74325;-56
2024/02/15 07:55:34;;;;;;;;;;;;;;;1.16;100.00;101189.84;109302;1253;66934;-58
2024/02/15 07:58:01;;;;;;;;;;;;;;;1.23;100.00;101183.70;109308;1252;72694;-57
2024/02/15 08:00:29;;;;;;;;;;;;;;;1.32;100.00;101184.14;109294;1257;59870;-56
2024/02/15 08:02:58;;;;;;;;;;;;;;;1.40;100.00;101184.33;109321;1252;60318;-56
2024/02/15 08:05:26;;;;;;;;;;;;;;;1.41;100.00;101184.41;109307;1253;74589;-57
2024/02/15 08:07:57;;;;;;;;;;;;;;;1.49;100.00;101186.11;109309;1254;66255;-57
2024/02/15 08:10:27;;;;;;;;;;;;;;;1.58;100.00;101183.28;109342;1253;71458;-57
2024/02/15 08:12:57;;;;;;;;;;;;;;;1.64;100.00;101176.58;109329;1252;59760;-57
2024/02/15 08:15:27;;;;;;;;;;;;;;;1.78;100.00;101188.32;109379;1252;59829;-57
2024/02/15 08:17:55;;;;;;;;;;;;;;;1.83;100.00;101187.60;109254;1253;75059;-57
2024/02/15 08:20:23;;;;;;;;;;;;;;;1.82;100.00;101183.59;109360;1251;67581;-57
2024/02/15 08:22:51;;;;;;;;;;;;;;;1.83;100.00;101178.70;109312;1253;71162;-56
2024/02/15 08:25:19;;;;;;;;;;;;;;;1.86;100.00;101171.16;109288;1252;60989;-58
2024/02/15 08:27:49;;;;;;;;;;;;;;;1.91;100.00;101181.60;109284;1252;62609;-57
2024/02/15 08:30:17;;;;;;;;;;;;;;;1.92;100.00;101174.80;109334;1253;75407;-57
2024/02/15 08:32:53;;;;;;;;;;;;;;;1.93;100.00;101176.13;109278;1253;68986;-57
2024/02/15 08:35:23;;;;;;;;;;;;;;;1.94;100.00;101177.10;109311;1252;72911;-56
2024/02/15 08:37:52;;;;;;;;;;;;;;;1.92;100.00;101180.14;109369;1253;60301;-57
2024/02/15 08:40:25;;;;;;;;;;;;;;;1.99;100.00;101177.45;109337;1254;60324;-58
2024/02/15 08:42:53;;;;;;;;;;;;;;;2.17;100.00;101183.23;109328;1253;75276;-56
2024/02/15 08:45:21;;;;;;;;;;;;;;;2.30;100.00;101180.45;109335;1253;67519;-57
2024/02/15 08:47:52;;;;;;;;;;;;;;;2.37;100.00;101185.64;109267;1253;74983;-65
2024/02/15 08:50:23;;;;;;;;;;;;;;;2.43;100.00;101189.16;109276;1257;59704;-57
2024/02/15 08:52:51;;;;;;;;;;;;;;;2.46;100.00;101196.01;109337;1253;61560;-56
2024/02/15 08:55:20;;;;;;;;;;;;;;;2.44;100.00;101194.73;109337;1253;77549;-56
2024/02/15 08:57:48;;;;;;;;;;;;;;;2.38;100.00;101187.27;109306;1254;69321;-65
2024/02/15 09:00:16;;;;;;;;;;;;;;;2.37;100.00;101198.30;109341;1252;74311;-57
2024/02/15 09:02:48;;;;;;;;;;;;;;;2.41;100.00;101196.84;109308;1253;61428;-57
2024/02/15 09:05:18;;;;;;;;;;;;;;;2.43;100.00;101192.05;109343;1253;60895;-57
2024/02/15 09:07:50;;;;;;;;;;;;;;;2.49;100.00;101190.10;109300;1253;77921;-61
2024/02/15 09:10:18;;;;;;;;;;;;;;;2.58;100.00;101186.23;109369;1252;68832;-57
2024/02/15 09:12:49;;;;;;;;;;;;;;;2.71;100.00;101183.90;109309;1254;73818;-57
2024/02/15 09:15:17;;;;;;;;;;;;;;;2.87;100.00;101174.83;109339;1253;59802;-57
2024/02/15 09:17:46;;;;;;;;;;;;;;;2.99;100.00;101172.60;109283;1253;62173;-57
2024/02/15 09:20:15;;;;;;;;;;;;;;;3.07;100.00;101169.42;109343;1252;77659;-56
2024/02/15 09:22:43;;;;;;;;;;;;;;;3.06;100.00;101166.60;109334;1253;67914;-59
2024/02/15 09:25:12;;;;;;;;;;;;;;;3.04;100.00;101171.02;109329;1253;76156;-57
2024/02/15 09:27:40;;;;;;;;;;;;;;;3.08;100.00;101163.88;109301;1257;60398;-58
2024/02/15 09:30:09;;;;;;;;;;;;;;;3.18;100.00;101165.71;109342;1253;62736;-60
2024/02/15 09:32:38;;;;;;;;;;;;;;;3.30;100.00;101158.13;109317;1253;76477;-57
2024/02/15 09:35:08;;;;;;;;;;;;;;;3.47;100.00;101157.20;109363;1253;68312;-56
2024/02/15 09:37:39;;;;;;;;;;;;;;;3.67;100.00;101160.04;109314;1254;72729;-57
2024/02/15 09:40:11;;;;;;;;;;;;;;;3.85;100.00;101157.46;109175;1253;61689;-57
2024/02/15 09:42:39;;;;;;;;;;;;;;;4.06;100.00;101155.66;109359;1252;59856;-59
2024/02/15 09:45:10;;;;;;;;;;;;;;;4.27;100.00;101154.02;109366;1253;76400;-57
2024/02/15 09:47:40;;;;;;;;;;;;;;;4.37;100.00;101154.27;109354;1253;68320;-56
2024/02/15 09:50:11;;;;;;;;;;;;;;;4.46;100.00;101158.73;109341;1252;72756;-58
2024/02/15 09:52:51;;;;;;;;;;;;;;;4.51;100.00;101144.87;109360;1254;60513;-58
2024/02/15 09:55:20;;;;;;;;;;;;;;;4.66;100.00;101138.51;109311;1252;60914;-57
2024/02/15 09:57:47;;;;;;;;;;;;;;;4.85;100.00;101134.12;109365;1253;77535;-57
2024/02/15 10:00:16;;;;;;;;;;;;;;;4.91;100.00;101135.84;109344;1253;69371;-58
2024/02/15 10:02:47;;;;;;;;;;;;;;;4.80;100.00;101137.27;109272;1254;75537;-58
2024/02/15 10:05:14;;;;;;;;;;;;;;;4.71;100.00;101135.39;109224;1254;61241;-59
2024/02/15 10:07:45;;;;;;;;;;;;;;;4.71;100.00;101137.25;109341;1254;61671;-57
2024/02/15 10:10:17;;;;;;;;;;;;;;;4.76;100.00;101135.17;109351;1254;78709;-56
2024/02/15 10:12:47;;;;;;;;;;;;;;;4.84;100.00;101135.71;109375;1253;68953;-58
2024/02/15 10:15:34;;;;;;;;;;;;;;;4.88;100.00;101144.73;109272;1254;74911;-58
2024/02/15 10:18:04;;;;;;;;;;;;;;;5.05;100.00;101140.77;109362;1254;61623;-58
2024/02/15 10:20:34;;;;;;;;;;;;;;;5.21;100.00;101142.84;109351;1254;61047;-66
2024/02/15 10:23:06;;;;;;;;;;;;;;;5.31;100.00;101140.84;109310;1253;77675;-57
2024/02/15 10:25:34;;;;;;;;;;;;;;;5.31;100.00;101129.66;109292;1258;68313;-57
2024/02/15 10:28:08;;;;;;;;;;;;;;;5.47;100.00;101138.10;109332;1253;74818;-57
2024/02/15 10:30:39;;;;;;;;;;;;;;;5.63;100.00;101137.65;109309;1252;61597;-63
2024/02/15 10:33:10;;;;;;;;;;;;;;;5.49;100.00;101147.09;109313;1257;61497;-57
2024/02/15 10:35:37;;;;;;;;;;;;;;;5.20;100.00;101146.20;109337;1253;78142;-57
2024/02/15 10:38:09;;;;;;;;;;;;;;;4.97;100.00;101149.61;109221;1256;70720;-58
2024/02/15 10:40:37;;;;;;;;;;;;;;;4.74;100.00;101144.30;109284;1257;74301;-65
2024/02/15 10:43:05;;;;;;;;;;;;;;;4.60;100.00;101143.16;109307;1253;60233;-59
2024/02/15 10:45:34;;;;;;;;;;;;;;;4.57;100.00;101141.35;109333;1252;62315;-57
2024/02/15 10:48:04;;;;;;;;;;;;;;;4.62;100.00;101135.75;109395;1254;77506;-57
2024/02/15 10:50:32;;;;;;;;;;;;;;;4.69;100.00;101141.79;109286;1253;68645;-65
2024/02/15 10:53:00;;;;;;;;;;;;;;;4.68;100.00;101146.27;109323;1254;73667;-56
2024/02/15 10:55:48;;;;;;;;;;;;;;;4.59;100.00;101142.88;109328;1254;61451;-57
2024/02/15 10:58:16;;;;;;;;;;;;;;;4.49;100.00;101147.10;109285;1252;61420;-60
2024/02/15 11:00:44;;;;;;;;;;;;;;;4.60;100.00;101138.13;109275;1253;78804;-57
2024/02/15 11:03:16;;;;;;;;;;;;;;;4.80;100.00;101141.58;109248;1253;68967;-58
2024/02/15 11:05:44;;;;;;;;;;;;;;;4.96;100.00;101134.42;109244;1253;75050;-57
2024/02/15 11:08:12;;;;;;;;;;;;;;;5.00;100.00;101129.92;109260;1251;61743;-59
2024/02/15 11:10:43;;;;;;;;;;;;;;;5.05;100.00;101126.38;109347;1254;60870;-57
2024/02/15 11:13:13;;;;;;;;;;;;;;;5.10;100.00;101121.84;109351;1254;77514;-57
2024/02/15 11:15:45;;;;;;;;;;;;;;;5.14;100.00;101113.98;109319;1254;68188;-57
2024/02/15 11:18:13;;;;;;;;;;;;;;;5.28;100.00;101116.61;109270;1254;74840;-57
2024/02/15 11:20:41;;;;;;;;;;;;;;;5.35;100.00;101111.58;109300;1254;60017;-57
2024/02/15 11:23:10;;;;;;;;;;;;;;;5.39;100.00;101113.79;109058;1253;363776;-57
2024/02/15 11:25:45;;;;;;;;;;;;;;;5.53;100.00;101117.24;109300;1254;77601;-57
2024/02/15 11:28:22;;;;;;;;;;;;;;;5.71;100.00;101117.54;109201;1254;67953;-63
2024/02/15 11:30:49;;;;;;;;;;;;;;;5.74;100.00;101115.37;109323;1254;74779;-57
2024/02/15 11:33:30;;;;;;;;;;;;;;;5.61;100.00;101111.05;109323;1253;60291;-59
2024/02/15 11:36:11;;;;;;;;;;;;;;;5.50;100.00;101109.10;109366;1253;61997;-63
2024/02/15 11:38:41;;;;;;;;;;;;;;;5.56;100.00;101113.38;109332;1254;77372;-57
2024/02/15 11:41:10;;;;;;;;;;;;;;;5.62;100.00;101112.23;109327;1253;67840;-59
2024/02/15 11:43:49;;;;;;;;;;;;;;;5.59;99.72;101115.02;109296;1254;74848;-57
2024/02/15 11:46:18;;;;;;;;;;;;;;;5.54;96.29;101123.92;109322;1252;61452;-57
2024/02/15 11:48:46;;;;;;;;;;;;;;;5.41;93.75;101117.27;109236;1253;63152;-57
2024/02/15 11:51:26;;;;;;;;;;;;;;;5.31;94.19;101129.42;109212;1256;77686;-56
2024/02/15 11:54:12;;;;;;;;;;;;;;;5.26;92.73;101107.33;109240;1254;67810;-56
2024/02/15 11:56:43;;;;;;;;;;;;;;;5.16;90.83;101099.49;109380;1254;74259;-57
2024/02/15 11:59:29;;;;;;;;;;;;;;;5.15;88.86;101096.47;109425;1254;59764;-57
2024/02/15 12:18:46;;;;;;;;;;;;;;;4.98;64.46;101091.52;109442;1252;78486;-57
2024/02/15 12:21:17;;;;;;;;;;;;;;;5.03;65.16;101093.19;109327;1254;68562;-57
2024/02/15 12:23:45;;;;;;;;;;;;;;;5.06;60.18;101113.77;109425;1254;75572;-56
2024/02/15 12:26:14;;;;;;;;;;;;;;;4.96;57.53;101108.37;109460;1254;60250;-57
2024/02/15 12:28:45;;;;;;;;;;;;;;;4.84;57.87;101101.10;109467;1251;61459;-57
2024/02/15 12:31:15;;;;;;;;;;;;;;;4.79;59.77;101103.95;109502;1251;77661;-56
2024/02/15 12:33:42;;;;;;;;;;;;;;;4.77;60.79;101096.49;109397;1254;68171;-60
2024/02/15 12:36:10;;;;;;;;;;;;;;;4.78;60.07;101095.08;109435;1254;74819;-56
2024/02/15 12:38:38;;;;;;;;;;;;;;;4.75;60.27;101088.80;109487;1253;61563;-56
2024/02/15 12:41:26;;;;;;;;;;;;;;;4.76;62.59;101087.15;109490;1251;60832;-56
2024/02/15 12:43:53;;;;;;;;;;;;;;;4.81;64.47;101091.71;109447;1253;77710;-56
2024/02/15 12:46:21;;;;;;;;;;;;;;;4.81;66.07;101095.67;109324;1254;67830;-57
2024/02/15 12:48:49;;;;;;;;;;;;;;;4.76;67.72;101090.39;109334;1253;72239;-56
2024/02/15 12:51:18;;;;;;;;;;;;;;;4.73;70.36;101085.45;109233;1252;60380;-65
2024/02/15 12:53:45;;;;;;;;;;;;;;;4.78;70.02;101095.02;109283;1254;60854;-57
2024/02/15 12:56:19;;;;;;;;;;;;;;;4.75;67.76;101088.23;109296;1253;76953;-56
2024/02/15 12:58:47;;;;;;;;;;;;;;;4.69;69.70;101095.77;109346;1253;68866;-56
2024/02/15 13:01:14;;;;;;;;;;;;;;;4.64;68.32;101090.46;109243;1254;73756;-63
2024/02/15 13:03:42;;;;;;;;;;;;;;;4.60;64.88;101095.81;109332;1252;61960;-55
2024/02/15 13:06:10;;;;;;;;;;;;;;;4.54;63.25;101091.11;109270;1253;60773;-57